createdAt,value
2022-10-13T00:00:48.523Z,99
2022-10-13T00:01:48.480Z,99
2022-10-13T00:02:48.473Z,99
2022-10-13T00:03:48.510Z,99
2022-10-13T00:04:48.475Z,99
2022-10-13T00:05:48.494Z,99
2022-10-13T00:06:48.493Z,99
2022-10-13T00:07:48.517Z,99
2022-10-13T00:08:48.545Z,99
2022-10-13T00:09:48.505Z,99
2022-10-13T00:10:48.525Z,99
2022-10-13T00:11:48.506Z,99
2022-10-13T00:12:48.506Z,99
2022-10-13T00:13:48.510Z,99
2022-10-13T00:14:48.489Z,99
2022-10-13T00:15:48.515Z,99
2022-10-13T00:16:48.544Z,99
2022-10-13T00:17:48.509Z,99
2022-10-13T00:18:48.547Z,99
2022-10-13T00:19:48.502Z,99
2022-10-13T00:20:48.510Z,99
2022-10-13T00:21:48.516Z,99
2022-10-13T00:22:48.514Z,99
2022-10-13T00:23:48.510Z,99
2022-10-13T00:24:48.524Z,99
2022-10-13T00:25:48.521Z,99
2022-10-13T00:26:48.521Z,99
2022-10-13T00:27:48.528Z,99
2022-10-13T00:28:52.140Z,99
2022-10-13T00:29:48.529Z,99
2022-10-13T00:30:48.539Z,99
2022-10-13T00:31:48.562Z,99
2022-10-13T00:32:48.567Z,99
2022-10-13T00:33:48.535Z,99
2022-10-13T00:34:48.548Z,99
2022-10-13T00:35:48.566Z,99
2022-10-13T00:36:48.571Z,99
2022-10-13T00:37:48.537Z,99
2022-10-13T00:38:48.535Z,99
2022-10-13T00:39:48.540Z,99
2022-10-13T00:40:48.578Z,99
2022-10-13T00:41:48.618Z,99
2022-10-13T00:42:48.572Z,99
2022-10-13T00:43:48.608Z,99
2022-10-13T00:44:48.591Z,99
2022-10-13T00:45:48.566Z,99
2022-10-13T00:46:48.559Z,99
2022-10-13T00:47:48.606Z,99
2022-10-13T00:48:48.705Z,99
2022-10-13T00:49:48.578Z,99
2022-10-13T00:50:48.581Z,99
2022-10-13T00:51:48.597Z,99
2022-10-13T00:52:48.593Z,99
2022-10-13T00:53:48.604Z,99
2022-10-13T00:54:48.591Z,99
2022-10-13T00:55:48.599Z,99
2022-10-13T00:56:48.595Z,99
2022-10-13T00:57:48.600Z,99
2022-10-13T00:58:48.607Z,99
2022-10-13T00:59:48.615Z,99
2022-10-13T01:00:48.679Z,99
2022-10-13T01:01:48.605Z,99
2022-10-13T01:02:48.632Z,99
2022-10-13T01:03:48.620Z,99
2022-10-13T01:04:48.636Z,99
2022-10-13T01:05:48.608Z,99
2022-10-13T01:06:48.626Z,99
2022-10-13T01:07:48.658Z,99
2022-10-13T01:08:48.636Z,99
2022-10-13T01:09:48.638Z,99
2022-10-13T01:10:48.623Z,99
2022-10-13T01:11:48.654Z,99
2022-10-13T01:12:48.621Z,99
2022-10-13T01:13:48.645Z,99
2022-10-13T01:14:48.626Z,99
2022-10-13T01:15:48.615Z,99
2022-10-13T01:16:48.635Z,99
2022-10-13T01:17:48.642Z,99
2022-10-13T01:18:48.657Z,99
2022-10-13T01:19:48.636Z,99
2022-10-13T01:20:48.674Z,99
2022-10-13T01:21:48.644Z,99
2022-10-13T01:22:48.664Z,99
2022-10-13T01:23:48.668Z,99
2022-10-13T01:24:48.662Z,99
2022-10-13T01:25:48.654Z,99
2022-10-13T01:26:48.671Z,99
2022-10-13T01:27:48.673Z,99
2022-10-13T01:28:48.738Z,99
2022-10-13T01:29:48.944Z,99
2022-10-13T01:30:48.652Z,99
2022-10-13T01:31:48.679Z,99
2022-10-13T01:32:48.661Z,99
2022-10-13T01:33:48.685Z,99
2022-10-13T01:34:48.717Z,99
2022-10-13T01:35:48.684Z,99
2022-10-13T01:36:48.727Z,99
2022-10-13T01:37:48.703Z,99
2022-10-13T01:38:48.680Z,99
2022-10-13T01:39:48.671Z,99
2022-10-13T01:40:48.678Z,99
2022-10-13T01:41:48.686Z,99
2022-10-13T01:42:48.688Z,99
2022-10-13T01:43:48.707Z,99
2022-10-13T01:44:48.716Z,99
2022-10-13T01:45:48.697Z,99
2022-10-13T01:46:48.708Z,99
2022-10-13T01:47:48.702Z,99
2022-10-13T01:48:48.716Z,99
2022-10-13T01:49:48.690Z,99
2022-10-13T01:50:48.718Z,99
2022-10-13T01:51:48.706Z,99
2022-10-13T01:52:48.719Z,99
2022-10-13T01:53:48.710Z,99
2022-10-13T01:54:48.695Z,99
2022-10-13T01:55:48.716Z,99
2022-10-13T01:56:48.711Z,99
2022-10-13T01:57:48.737Z,99
2022-10-13T01:58:48.734Z,99
2022-10-13T01:59:48.717Z,99
2022-10-13T02:00:48.776Z,99
2022-10-13T02:01:48.733Z,99
2022-10-13T02:02:48.727Z,99
2022-10-13T02:03:48.748Z,99
2022-10-13T02:04:48.724Z,99
2022-10-13T02:05:48.731Z,99
2022-10-13T02:06:48.723Z,99
2022-10-13T02:07:48.762Z,99
2022-10-13T02:08:48.772Z,99
2022-10-13T02:09:48.746Z,99
2022-10-13T02:10:48.776Z,99
2022-10-13T02:11:48.757Z,99
2022-10-13T02:12:48.769Z,99
2022-10-13T02:13:48.774Z,99
2022-10-13T02:14:48.757Z,99
2022-10-13T02:15:48.765Z,99
2022-10-13T02:16:48.766Z,99
2022-10-13T02:17:48.769Z,99
2022-10-13T02:18:48.791Z,99
2022-10-13T02:19:48.759Z,99
2022-10-13T02:20:48.773Z,99
2022-10-13T02:21:48.773Z,99
2022-10-13T02:22:48.771Z,99
2022-10-13T02:23:48.797Z,99
2022-10-13T02:24:48.953Z,99
2022-10-13T02:25:48.795Z,99
2022-10-13T02:26:48.798Z,99
2022-10-13T02:27:48.803Z,99
2022-10-13T02:28:48.902Z,99
2022-10-13T02:29:48.792Z,99
2022-10-13T02:30:48.799Z,99
2022-10-13T02:31:48.811Z,99
2022-10-13T02:32:48.801Z,99
2022-10-13T02:33:48.817Z,99
2022-10-13T02:34:48.791Z,99
2022-10-13T02:35:48.808Z,99
2022-10-13T02:36:48.813Z,99
2022-10-13T02:37:48.827Z,99
2022-10-13T02:38:48.838Z,99
2022-10-13T02:39:48.845Z,99
2022-10-13T02:40:48.886Z,99
2022-10-13T02:41:48.824Z,99
2022-10-13T02:42:48.839Z,99
2022-10-13T02:43:48.857Z,99
2022-10-13T02:44:48.831Z,99
2022-10-13T02:45:48.910Z,99
2022-10-13T02:46:48.827Z,99
2022-10-13T02:47:48.842Z,99
2022-10-13T02:48:48.858Z,99
2022-10-13T02:49:48.858Z,99
2022-10-13T02:50:48.854Z,99
2022-10-13T02:51:48.832Z,99
2022-10-13T02:52:48.848Z,99
2022-10-13T02:53:48.873Z,99
2022-10-13T02:54:48.853Z,99
2022-10-13T02:55:48.854Z,99
2022-10-13T02:56:48.886Z,99
2022-10-13T02:57:48.869Z,99
2022-10-13T02:58:48.872Z,99
2022-10-13T02:59:48.849Z,99
2022-10-13T03:00:48.946Z,99
2022-10-13T03:01:48.913Z,99
2022-10-13T03:02:48.896Z,99
2022-10-13T03:03:48.910Z,99
2022-10-13T03:04:48.897Z,99
2022-10-13T03:05:48.905Z,99
2022-10-13T03:06:48.886Z,99
2022-10-13T03:07:48.906Z,99
2022-10-13T03:08:48.932Z,99
2022-10-13T03:09:48.898Z,99
2022-10-13T03:10:48.907Z,99
2022-10-13T03:11:48.895Z,99
2022-10-13T03:12:48.933Z,99
2022-10-13T03:13:48.933Z,99
2022-10-13T03:14:48.941Z,99
2022-10-13T03:15:48.916Z,99
2022-10-13T03:16:48.898Z,99
2022-10-13T03:17:48.919Z,99
2022-10-13T03:18:48.951Z,99
2022-10-13T03:19:48.912Z,99
2022-10-13T03:20:48.915Z,99
2022-10-13T03:21:48.912Z,99
2022-10-13T03:22:49.988Z,99
2022-10-13T03:23:48.943Z,99
2022-10-13T03:24:48.950Z,99
2022-10-13T03:25:48.923Z,99
2022-10-13T03:26:48.925Z,99
2022-10-13T03:27:48.929Z,99
2022-10-13T03:28:49.097Z,99
2022-10-13T03:29:48.927Z,99
2022-10-13T03:30:48.954Z,99
2022-10-13T03:31:48.934Z,99
2022-10-13T03:32:48.957Z,99
2022-10-13T03:33:48.955Z,99
2022-10-13T03:34:48.937Z,99
2022-10-13T03:35:48.932Z,99
2022-10-13T03:36:48.936Z,99
2022-10-13T03:37:48.971Z,99
2022-10-13T03:38:48.991Z,99
2022-10-13T03:39:48.950Z,99
2022-10-13T03:40:48.943Z,99
2022-10-13T03:41:48.964Z,99
2022-10-13T03:42:48.962Z,99
2022-10-13T03:43:48.988Z,99
2022-10-13T03:44:52.428Z,99
2022-10-13T03:45:49.039Z,99
2022-10-13T03:46:48.961Z,99
2022-10-13T03:47:48.969Z,99
2022-10-13T03:48:48.984Z,99
2022-10-13T03:49:48.969Z,99
2022-10-13T03:50:49.000Z,99
2022-10-13T03:51:48.983Z,99
2022-10-13T03:52:48.982Z,99
2022-10-13T03:53:49.042Z,99
2022-10-13T03:54:48.990Z,99
2022-10-13T03:55:49.002Z,99
2022-10-13T03:56:48.999Z,99
2022-10-13T03:57:49.007Z,99
2022-10-13T03:58:49.113Z,99
2022-10-13T03:59:49.001Z,99
2022-10-13T04:00:49.020Z,99
2022-10-13T04:01:49.068Z,99
2022-10-13T04:02:49.012Z,99
2022-10-13T04:03:49.041Z,99
2022-10-13T04:04:49.020Z,99
2022-10-13T04:05:49.039Z,99
2022-10-13T04:06:49.020Z,99
2022-10-13T04:07:49.030Z,99
2022-10-13T04:08:49.068Z,99
2022-10-13T04:09:49.029Z,99
2022-10-13T04:10:49.035Z,99
2022-10-13T04:11:49.033Z,99
2022-10-13T04:12:49.039Z,99
2022-10-13T04:13:49.061Z,99
2022-10-13T04:14:49.050Z,99
2022-10-13T04:15:49.056Z,99
2022-10-13T04:16:49.087Z,99
2022-10-13T04:17:49.078Z,99
2022-10-13T04:18:49.105Z,99
2022-10-13T04:19:49.068Z,99
2022-10-13T04:20:49.071Z,99
2022-10-13T04:21:49.076Z,99
2022-10-13T04:22:49.076Z,99
2022-10-13T04:23:49.100Z,99
2022-10-13T04:24:49.090Z,99
2022-10-13T04:25:49.275Z,99
2022-10-13T04:26:49.079Z,99
2022-10-13T04:27:49.082Z,99
2022-10-13T04:28:49.183Z,99
2022-10-13T04:29:49.083Z,99
2022-10-13T04:30:49.649Z,99
2022-10-13T04:31:49.078Z,99
2022-10-13T04:32:49.125Z,99
2022-10-13T04:33:49.148Z,99
2022-10-13T04:34:49.138Z,99
2022-10-13T04:35:49.111Z,99
2022-10-13T04:36:49.108Z,99
2022-10-13T04:37:49.117Z,99
2022-10-13T04:38:49.123Z,99
2022-10-13T04:39:49.129Z,99
2022-10-13T04:40:49.115Z,99
2022-10-13T04:41:49.121Z,99
2022-10-13T04:42:49.132Z,99
2022-10-13T04:43:49.156Z,99
2022-10-13T04:44:49.123Z,99
2022-10-13T04:45:49.157Z,99
2022-10-13T04:46:49.132Z,99
2022-10-13T04:47:49.130Z,99
2022-10-13T04:48:49.188Z,99
2022-10-13T04:49:49.142Z,99
2022-10-13T04:50:49.162Z,99
2022-10-13T04:51:49.132Z,99
2022-10-13T04:52:49.180Z,99
2022-10-13T04:53:49.174Z,99
2022-10-13T04:54:49.238Z,99
2022-10-13T04:55:49.162Z,99
2022-10-13T04:56:49.168Z,99
2022-10-13T04:57:49.183Z,99
2022-10-13T04:58:49.183Z,99
2022-10-13T04:59:49.177Z,99
2022-10-13T05:00:49.233Z,99
2022-10-13T05:01:49.198Z,99
2022-10-13T05:02:49.177Z,99
2022-10-13T05:03:49.188Z,99
2022-10-13T05:04:49.223Z,99
2022-10-13T05:05:49.183Z,99
2022-10-13T05:07:12.899Z,99
2022-10-13T05:07:49.185Z,99
2022-10-13T05:08:49.192Z,99
2022-10-13T05:09:49.187Z,99
2022-10-13T05:10:49.187Z,99
2022-10-13T05:11:49.214Z,99
2022-10-13T05:12:49.195Z,99
2022-10-13T05:13:49.228Z,99
2022-10-13T05:14:49.209Z,99
2022-10-13T05:15:49.211Z,99
2022-10-13T05:16:49.199Z,99
2022-10-13T05:17:49.199Z,99
2022-10-13T05:18:49.263Z,99
2022-10-13T05:19:49.247Z,99
2022-10-13T05:20:49.242Z,99
2022-10-13T05:21:49.229Z,99
2022-10-13T05:22:49.301Z,99
2022-10-13T05:23:49.258Z,99
2022-10-13T05:24:49.246Z,99
2022-10-13T05:25:49.241Z,99
2022-10-13T05:26:49.242Z,99
2022-10-13T05:27:49.235Z,99
2022-10-13T05:28:49.328Z,99
2022-10-13T05:29:49.234Z,99
2022-10-13T05:30:49.229Z,99
2022-10-13T05:31:49.239Z,99
2022-10-13T05:32:52.974Z,99
2022-10-13T05:33:49.245Z,99
2022-10-13T05:34:49.277Z,99
2022-10-13T05:35:49.258Z,99
2022-10-13T05:36:49.293Z,99
2022-10-13T05:37:49.232Z,99
2022-10-13T05:38:49.257Z,99
2022-10-13T05:39:49.246Z,99
2022-10-13T05:40:49.255Z,99
2022-10-13T05:41:49.253Z,99
2022-10-13T05:42:49.246Z,99
2022-10-13T05:43:49.278Z,99
2022-10-13T05:44:49.268Z,99
2022-10-13T05:45:49.261Z,99
2022-10-13T05:46:49.247Z,99
2022-10-13T05:47:49.271Z,99
2022-10-13T05:48:49.277Z,99
2022-10-13T05:49:49.298Z,99
2022-10-13T05:50:49.289Z,99
2022-10-13T05:51:49.286Z,99
2022-10-13T05:52:49.329Z,99
2022-10-13T05:53:51.984Z,99
2022-10-13T05:54:49.320Z,99
2022-10-13T05:55:49.286Z,99
2022-10-13T05:56:49.300Z,99
2022-10-13T05:57:49.291Z,99
2022-10-13T05:58:49.305Z,99
2022-10-13T05:59:49.289Z,99
2022-10-13T06:00:49.328Z,99
2022-10-13T06:01:49.387Z,99
2022-10-13T06:02:49.332Z,99
2022-10-13T06:03:49.321Z,99
2022-10-13T06:04:49.322Z,99
2022-10-13T06:05:49.322Z,99
2022-10-13T06:06:49.318Z,99
2022-10-13T06:07:49.329Z,99
2022-10-13T06:08:49.429Z,99
2022-10-13T06:09:49.315Z,99
2022-10-13T06:10:49.324Z,99
2022-10-13T06:11:49.331Z,99
2022-10-13T06:12:49.325Z,99
2022-10-13T06:13:49.334Z,99
2022-10-13T06:14:49.358Z,99
2022-10-13T06:15:49.341Z,99
2022-10-13T06:16:49.378Z,99
2022-10-13T06:17:49.376Z,99
2022-10-13T06:18:49.375Z,99
2022-10-13T06:19:49.651Z,99
2022-10-13T06:20:49.370Z,99
2022-10-13T06:21:49.368Z,99
2022-10-13T06:22:49.366Z,99
2022-10-13T06:23:49.383Z,99
2022-10-13T06:24:49.407Z,99
2022-10-13T06:25:49.369Z,99
2022-10-13T06:26:49.374Z,99
2022-10-13T06:27:49.400Z,99
2022-10-13T06:28:51.113Z,99
2022-10-13T06:29:49.370Z,99
2022-10-13T06:30:49.413Z,99
2022-10-13T06:31:49.381Z,99
2022-10-13T06:32:49.411Z,99
2022-10-13T06:33:49.390Z,99
2022-10-13T06:34:49.405Z,99
2022-10-13T06:35:49.398Z,99
2022-10-13T06:36:49.405Z,99
2022-10-13T06:37:49.389Z,99
2022-10-13T06:38:49.420Z,99
2022-10-13T06:39:49.435Z,99
2022-10-13T06:40:49.448Z,99
2022-10-13T06:41:49.406Z,99
2022-10-13T06:42:49.409Z,99
2022-10-13T06:43:49.420Z,99
2022-10-13T06:44:49.436Z,99
2022-10-13T06:45:49.415Z,99
2022-10-13T06:46:49.413Z,99
2022-10-13T06:47:49.429Z,99
2022-10-13T06:48:49.437Z,99
2022-10-13T06:49:49.463Z,99
2022-10-13T06:50:49.462Z,99
2022-10-13T06:51:49.443Z,99
2022-10-13T06:52:49.450Z,99
2022-10-13T06:53:49.440Z,99
2022-10-13T06:54:49.438Z,99
2022-10-13T06:55:52.431Z,99
2022-10-13T06:56:49.495Z,99
2022-10-13T06:57:49.451Z,99
2022-10-13T06:58:49.467Z,99
2022-10-13T06:59:49.452Z,99
2022-10-13T07:00:49.534Z,99
2022-10-13T07:01:49.482Z,99
2022-10-13T07:02:49.479Z,99
2022-10-13T07:03:49.497Z,99
2022-10-13T07:04:49.498Z,99
2022-10-13T07:05:49.470Z,99
2022-10-13T07:06:49.491Z,99
2022-10-13T07:07:49.475Z,99
2022-10-13T07:08:49.476Z,99
2022-10-13T07:09:49.471Z,99
2022-10-13T07:10:49.497Z,99
2022-10-13T07:11:49.512Z,99
2022-10-13T07:12:49.518Z,99
2022-10-13T07:13:49.545Z,99
2022-10-13T07:14:49.531Z,99
2022-10-13T07:15:49.511Z,99
2022-10-13T07:16:49.497Z,99
2022-10-13T07:17:49.499Z,99
2022-10-13T07:18:49.532Z,99
2022-10-13T07:19:49.506Z,99
2022-10-13T07:20:49.531Z,99
2022-10-13T07:21:49.524Z,99
2022-10-13T07:22:49.508Z,99
2022-10-13T07:23:49.553Z,99
2022-10-13T07:24:49.538Z,99
2022-10-13T07:25:49.509Z,99
2022-10-13T07:26:49.520Z,99
2022-10-13T07:27:49.507Z,99
2022-10-13T07:28:49.650Z,99
2022-10-13T07:29:49.540Z,99
2022-10-13T07:30:49.519Z,99
2022-10-13T07:31:49.520Z,99
2022-10-13T07:32:49.530Z,99
2022-10-13T07:33:49.525Z,99
2022-10-13T07:34:49.507Z,99
2022-10-13T07:35:49.526Z,99
2022-10-13T07:36:49.543Z,99
2022-10-13T07:37:49.524Z,99
2022-10-13T07:38:49.539Z,99
2022-10-13T07:39:49.561Z,99
2022-10-13T07:40:49.546Z,99
2022-10-13T07:41:51.174Z,99
2022-10-13T07:42:49.542Z,99
2022-10-13T07:43:49.544Z,99
2022-10-13T07:44:49.580Z,99
2022-10-13T07:45:49.540Z,99
2022-10-13T07:46:49.533Z,99
2022-10-13T07:47:49.548Z,99
2022-10-13T07:48:49.589Z,99
2022-10-13T07:49:49.555Z,99
2022-10-13T07:50:49.577Z,99
2022-10-13T07:51:49.565Z,98
2022-10-13T07:52:49.563Z,98
2022-10-13T07:53:49.626Z,98
2022-10-13T07:54:49.617Z,98
2022-10-13T07:55:49.600Z,98
2022-10-13T07:56:49.631Z,98
2022-10-13T07:57:49.610Z,98
2022-10-13T07:58:49.604Z,98
2022-10-13T07:59:49.607Z,98
2022-10-13T08:00:49.616Z,98
2022-10-13T08:01:49.663Z,98
2022-10-13T08:02:49.600Z,98
2022-10-13T08:03:50.479Z,98
2022-10-13T08:04:49.597Z,98
2022-10-13T08:05:49.598Z,98
2022-10-13T08:06:49.620Z,98
2022-10-13T08:07:51.475Z,98
2022-10-13T08:08:49.622Z,98
2022-10-13T08:09:49.615Z,98
2022-10-13T08:10:49.657Z,98
2022-10-13T08:11:49.620Z,98
2022-10-13T08:12:49.625Z,98
2022-10-13T08:13:49.633Z,98
2022-10-13T08:15:49.654Z,98
2022-10-13T08:16:51.302Z,98
2022-10-13T08:17:49.773Z,97
2022-10-13T08:18:49.642Z,98
2022-10-13T08:19:49.648Z,98
2022-10-13T08:20:49.638Z,97
2022-10-13T08:21:58.495Z,97
2022-10-13T08:22:49.649Z,97
2022-10-13T08:23:49.679Z,97
2022-10-13T08:24:49.650Z,97
2022-10-13T08:25:49.660Z,96
2022-10-13T08:26:49.662Z,96
2022-10-13T08:27:51.298Z,96
2022-10-13T08:29:03.370Z,96
2022-10-13T08:29:49.661Z,95
2022-10-13T08:30:49.769Z,95
2022-10-13T08:32:49.715Z,94
2022-10-13T08:33:49.694Z,95
2022-10-13T08:34:49.686Z,94
2022-10-13T08:35:49.695Z,94
2022-10-13T08:36:49.730Z,94
2022-10-13T08:37:49.697Z,94
2022-10-13T08:38:49.709Z,93
2022-10-13T08:39:49.720Z,93
2022-10-13T08:40:49.769Z,93
2022-10-13T08:41:49.708Z,93
2022-10-13T08:42:49.715Z,93
2022-10-13T08:44:24.981Z,93
2022-10-13T08:45:44.074Z,93
2022-10-13T08:45:49.712Z,92
2022-10-13T08:46:49.710Z,92
2022-10-13T08:47:49.723Z,91
2022-10-13T08:48:49.753Z,90
2022-10-13T08:49:49.735Z,91
2022-10-13T08:50:49.729Z,91
2022-10-13T08:51:49.723Z,91
2022-10-13T08:52:49.721Z,91
2022-10-13T08:53:49.721Z,90
2022-10-13T08:54:49.726Z,89
2022-10-13T08:55:49.758Z,88
2022-10-13T08:56:49.793Z,89
2022-10-13T08:57:49.732Z,88
2022-10-13T08:58:49.754Z,88
2022-10-13T08:59:49.744Z,88
2022-10-13T09:00:49.745Z,88
2022-10-13T09:01:49.775Z,88
2022-10-13T09:02:49.749Z,88
2022-10-13T09:03:49.772Z,88
2022-10-13T09:04:49.915Z,88
2022-10-13T09:05:49.760Z,89
2022-10-13T09:06:49.772Z,88
2022-10-13T09:07:49.780Z,89
2022-10-13T09:08:49.773Z,88
2022-10-13T09:09:49.756Z,88
2022-10-13T09:10:49.762Z,88
2022-10-13T09:11:49.770Z,88
2022-10-13T09:12:49.765Z,88
2022-10-13T09:13:49.798Z,88
2022-10-13T09:14:49.792Z,89
2022-10-13T09:15:49.775Z,88
2022-10-13T09:16:49.781Z,88
2022-10-13T09:17:49.767Z,87
2022-10-13T09:18:49.799Z,86
2022-10-13T09:19:49.777Z,87
2022-10-13T09:20:49.797Z,86
2022-10-13T09:21:49.786Z,86
2022-10-13T09:22:49.790Z,86
2022-10-13T09:23:49.786Z,85
2022-10-13T09:24:49.791Z,85
2022-10-13T09:25:49.796Z,85
2022-10-13T09:26:49.810Z,85
2022-10-13T09:27:49.816Z,84
2022-10-13T09:28:49.902Z,83
2022-10-13T09:29:49.824Z,83
2022-10-13T09:30:49.820Z,84
2022-10-13T09:31:49.815Z,83
2022-10-13T09:32:49.811Z,83
2022-10-13T09:33:49.826Z,82
2022-10-13T09:34:49.824Z,81
2022-10-13T09:35:49.821Z,82
2022-10-13T09:36:49.851Z,82
2022-10-13T09:37:49.809Z,82
2022-10-13T09:38:49.872Z,84
2022-10-13T09:39:49.825Z,83
2022-10-13T09:40:49.863Z,82
2022-10-13T09:41:49.869Z,82
2022-10-13T09:42:49.832Z,82
2022-10-13T09:43:49.858Z,81
2022-10-13T09:44:49.839Z,80
2022-10-13T09:45:49.849Z,80
2022-10-13T09:46:50.160Z,79
2022-10-13T09:47:49.834Z,80
2022-10-13T09:48:49.894Z,79
2022-10-13T09:49:49.846Z,78
2022-10-13T09:50:49.850Z,78
2022-10-13T09:51:49.871Z,78
2022-10-13T09:52:49.970Z,77
2022-10-13T09:53:49.904Z,76
2022-10-13T09:54:49.874Z,76
2022-10-13T09:55:49.887Z,77
2022-10-13T09:56:49.878Z,78
2022-10-13T09:57:49.905Z,76
2022-10-13T09:58:49.909Z,79
2022-10-13T09:59:49.943Z,78
2022-10-13T10:00:49.875Z,78
2022-10-13T10:01:49.882Z,77
2022-10-13T10:02:49.941Z,76
2022-10-13T10:03:49.983Z,75
2022-10-13T10:04:49.906Z,75
2022-10-13T10:05:49.902Z,74
2022-10-13T10:06:49.951Z,74
2022-10-13T10:07:49.919Z,73
2022-10-13T10:09:05.344Z,72
2022-10-13T10:09:49.920Z,74
2022-10-13T10:10:49.913Z,74
2022-10-13T10:11:49.914Z,73
2022-10-13T10:12:49.910Z,71
2022-10-13T10:13:49.930Z,74
2022-10-13T10:14:49.911Z,76
2022-10-13T10:15:49.906Z,74
2022-10-13T10:16:49.935Z,76
2022-10-13T10:17:49.928Z,75
2022-10-13T10:18:51.882Z,75
2022-10-13T10:19:49.913Z,76
2022-10-13T10:20:49.956Z,76
2022-10-13T10:21:49.929Z,76
2022-10-13T10:22:49.933Z,76
2022-10-13T10:23:49.946Z,77
2022-10-13T10:24:49.985Z,78
2022-10-13T10:25:49.962Z,76
2022-10-13T10:26:49.947Z,76
2022-10-13T10:27:49.996Z,75
2022-10-13T10:28:50.061Z,75
2022-10-13T10:29:49.973Z,76
2022-10-13T10:30:49.991Z,76
2022-10-13T10:31:49.974Z,77
2022-10-13T10:32:49.967Z,78
2022-10-13T10:33:49.983Z,78
2022-10-13T10:34:49.980Z,78
2022-10-13T10:35:49.960Z,78
2022-10-13T10:36:49.972Z,78
2022-10-13T10:37:49.996Z,78
2022-10-13T10:38:49.985Z,78
2022-10-13T10:39:49.984Z,78
2022-10-13T10:40:50.110Z,78
2022-10-13T10:41:49.973Z,75
2022-10-13T10:42:52.256Z,78
2022-10-13T10:43:50.004Z,77
2022-10-13T10:44:50.041Z,76
2022-10-13T10:45:50.002Z,74
2022-10-13T10:46:49.988Z,74
2022-10-13T10:47:49.996Z,74
2022-10-13T10:48:49.985Z,73
2022-10-13T10:49:50.006Z,74
2022-10-13T10:50:50.009Z,69
2022-10-13T10:51:50.068Z,70
2022-10-13T10:52:50.033Z,69
2022-10-13T10:53:50.022Z,69
2022-10-13T10:54:50.013Z,69
2022-10-13T10:55:50.043Z,68
2022-10-13T10:56:50.039Z,69
2022-10-13T10:57:50.036Z,69
2022-10-13T10:58:50.044Z,70
2022-10-13T10:59:50.025Z,69
2022-10-13T11:00:50.048Z,68
2022-10-13T11:01:50.074Z,67
2022-10-13T11:02:50.026Z,68
2022-10-13T11:03:50.040Z,69
2022-10-13T11:04:50.074Z,70
2022-10-13T11:05:50.040Z,70
2022-10-13T11:06:50.043Z,70
2022-10-13T11:07:50.065Z,72
2022-10-13T11:08:50.064Z,72
2022-10-13T11:09:50.037Z,71
2022-10-13T11:10:50.040Z,71
2022-10-13T11:11:50.049Z,72
2022-10-13T11:12:50.115Z,72
2022-10-13T11:13:50.063Z,71
2022-10-13T11:14:50.052Z,72
2022-10-13T11:15:50.063Z,73
2022-10-13T11:16:50.090Z,73
2022-10-13T11:17:50.092Z,73
2022-10-13T11:18:50.082Z,73
2022-10-13T11:19:50.119Z,73
2022-10-13T11:20:50.097Z,73
2022-10-13T11:21:50.083Z,73
2022-10-13T11:22:50.085Z,73
2022-10-13T11:23:50.114Z,73
2022-10-13T11:24:50.153Z,73
2022-10-13T11:25:50.096Z,72
2022-10-13T11:26:50.101Z,72
2022-10-13T11:27:50.111Z,73
2022-10-13T11:28:50.278Z,71
2022-10-13T11:29:50.084Z,72
2022-10-13T11:30:50.244Z,72
2022-10-13T11:31:50.116Z,72
2022-10-13T11:32:50.127Z,74
2022-10-13T11:33:50.135Z,74
2022-10-13T11:34:50.125Z,74
2022-10-13T11:35:50.120Z,74
2022-10-13T11:36:50.123Z,75
2022-10-13T11:38:00.795Z,75
2022-10-13T11:38:50.146Z,75
2022-10-13T11:39:50.128Z,76
2022-10-13T11:40:50.136Z,75
2022-10-13T11:41:50.155Z,75
2022-10-13T11:42:51.492Z,75
2022-10-13T11:43:50.135Z,76
2022-10-13T11:44:50.207Z,76
2022-10-13T11:45:50.199Z,76
2022-10-13T11:46:50.160Z,76
2022-10-13T11:47:50.152Z,76
2022-10-13T11:48:50.165Z,77
2022-10-13T11:49:50.139Z,76
2022-10-13T11:50:50.138Z,76
2022-10-13T11:51:50.152Z,76
2022-10-13T11:52:50.224Z,77
2022-10-13T11:53:50.160Z,77
2022-10-13T11:54:50.178Z,78
2022-10-13T11:55:50.163Z,77
2022-10-13T11:56:50.157Z,78
2022-10-13T11:57:50.173Z,78
2022-10-13T11:58:50.169Z,78
2022-10-13T11:59:50.175Z,77
2022-10-13T12:00:50.255Z,78
2022-10-13T12:01:50.184Z,78
2022-10-13T12:02:50.264Z,77
2022-10-13T12:03:50.299Z,77
2022-10-13T12:04:50.181Z,78
2022-10-13T12:05:50.169Z,78
2022-10-13T12:06:50.174Z,79
2022-10-13T12:07:50.180Z,79
2022-10-13T12:08:50.202Z,79
2022-10-13T12:09:50.198Z,80
2022-10-13T12:10:50.206Z,79
2022-10-13T12:11:50.201Z,79
2022-10-13T12:12:50.361Z,79
2022-10-13T12:13:50.474Z,80
2022-10-13T12:14:50.235Z,80
2022-10-13T12:15:50.213Z,80
2022-10-13T12:16:50.314Z,80
2022-10-13T12:17:50.225Z,80
2022-10-13T12:18:50.218Z,80
2022-10-13T12:19:50.220Z,81
2022-10-13T12:20:50.240Z,81
2022-10-13T12:21:50.227Z,81
2022-10-13T12:22:50.277Z,81
2022-10-13T12:23:50.230Z,81
2022-10-13T12:24:50.218Z,81
2022-10-13T12:25:50.225Z,81
2022-10-13T12:26:50.238Z,81
2022-10-13T12:27:50.254Z,81
2022-10-13T12:28:50.345Z,82
2022-10-13T12:29:50.246Z,82
2022-10-13T12:30:50.229Z,82
2022-10-13T12:31:50.241Z,82
2022-10-13T12:32:50.264Z,82
2022-10-13T12:33:50.238Z,82
2022-10-13T12:34:50.235Z,82
2022-10-13T12:35:50.229Z,82
2022-10-13T12:36:50.341Z,82
2022-10-13T12:37:50.243Z,82
2022-10-13T12:38:50.250Z,82
2022-10-13T12:39:50.252Z,82
2022-10-13T12:40:50.257Z,82
2022-10-13T12:41:50.258Z,82
2022-10-13T12:42:50.263Z,81
2022-10-13T12:43:50.256Z,82
2022-10-13T12:44:50.262Z,80
2022-10-13T12:45:50.282Z,81
2022-10-13T12:46:50.293Z,81
2022-10-13T12:47:50.269Z,81
2022-10-13T12:48:50.394Z,82
2022-10-13T12:49:50.262Z,80
2022-10-13T12:50:50.262Z,81
2022-10-13T12:51:50.281Z,80
2022-10-13T12:52:50.296Z,80
2022-10-13T12:53:50.276Z,81
2022-10-13T12:54:50.264Z,81
2022-10-13T12:55:50.373Z,81
2022-10-13T12:56:53.699Z,81
2022-10-13T12:57:50.305Z,81
2022-10-13T12:58:50.310Z,81
2022-10-13T12:59:50.290Z,82
2022-10-13T13:00:50.335Z,82
2022-10-13T13:01:50.317Z,82
2022-10-13T13:02:50.289Z,82
2022-10-13T13:03:50.290Z,82
2022-10-13T13:04:50.339Z,82
2022-10-13T13:05:52.875Z,82
2022-10-13T13:06:50.335Z,81
2022-10-13T13:07:50.305Z,82
2022-10-13T13:08:50.302Z,82
2022-10-13T13:09:50.321Z,82
2022-10-13T13:10:50.307Z,82
2022-10-13T13:11:50.315Z,83
2022-10-13T13:12:50.303Z,82
2022-10-13T13:13:50.306Z,82
2022-10-13T13:14:50.321Z,82
2022-10-13T13:15:50.320Z,83
2022-10-13T13:16:50.341Z,83
2022-10-13T13:17:58.119Z,82
2022-10-13T13:18:50.349Z,83
2022-10-13T13:19:50.339Z,83
2022-10-13T13:20:50.492Z,83
2022-10-13T13:21:50.352Z,83
2022-10-13T13:22:50.371Z,83
2022-10-13T13:23:52.703Z,83
2022-10-13T13:24:50.339Z,83
2022-10-13T13:25:50.356Z,83
2022-10-13T13:26:50.373Z,83
2022-10-13T13:27:50.356Z,83
2022-10-13T13:28:50.689Z,83
2022-10-13T13:29:50.358Z,83
2022-10-13T13:30:50.357Z,83
2022-10-13T13:31:50.367Z,82
2022-10-13T13:32:50.376Z,82
2022-10-13T13:33:50.392Z,82
2022-10-13T13:34:50.381Z,82
2022-10-13T13:35:50.386Z,82
2022-10-13T13:36:50.433Z,82
2022-10-13T13:37:50.390Z,82
2022-10-13T13:38:50.379Z,83
2022-10-13T13:39:50.371Z,82
2022-10-13T13:40:50.413Z,82
2022-10-13T13:41:50.419Z,81
2022-10-13T13:42:50.409Z,82
2022-10-13T13:43:50.443Z,81
2022-10-13T13:44:50.399Z,82
2022-10-13T13:45:50.414Z,82
2022-10-13T13:46:50.434Z,81
2022-10-13T13:47:50.422Z,81
2022-10-13T13:48:50.394Z,81
2022-10-13T13:49:50.403Z,80
2022-10-13T13:50:50.421Z,80
2022-10-13T13:51:50.426Z,80
2022-10-13T13:52:50.426Z,80
2022-10-13T13:53:50.403Z,80
2022-10-13T13:54:50.416Z,80
2022-10-13T13:55:50.410Z,81
2022-10-13T13:56:50.419Z,80
2022-10-13T13:57:50.436Z,80
2022-10-13T13:58:50.431Z,78
2022-10-13T13:59:50.427Z,78
2022-10-13T14:00:50.459Z,78
2022-10-13T14:01:50.456Z,78
2022-10-13T14:02:50.426Z,78
2022-10-13T14:03:50.434Z,79
2022-10-13T14:04:50.475Z,80
2022-10-13T14:05:50.464Z,80
2022-10-13T14:06:50.471Z,81
2022-10-13T14:07:50.455Z,81
2022-10-13T14:08:50.486Z,81
2022-10-13T14:09:50.450Z,81
2022-10-13T14:10:50.463Z,81
2022-10-13T14:11:50.464Z,81
2022-10-13T14:12:50.453Z,81
2022-10-13T14:13:50.469Z,81
2022-10-13T14:14:50.479Z,81
2022-10-13T14:15:50.466Z,81
2022-10-13T14:16:50.467Z,81
2022-10-13T14:17:50.468Z,81